sensor_id;sensor_type;location;lat;lon;timestamp;P1;durP1;ratioP1;P2;durP2;ratioP2
19776;SDS011;10047;42.490;26.012;2022-09-20T00:01:13;0.52;;;0.32;;
19776;SDS011;10047;42.490;26.012;2022-09-20T00:03:46;1.48;;;0.30;;
19776;SDS011;10047;42.490;26.012;2022-09-20T00:06:13;0.55;;;0.40;;
19776;SDS011;10047;42.490;26.012;2022-09-20T00:08:44;1.63;;;0.50;;
19776;SDS011;10047;42.490;26.012;2022-09-20T00:11:11;2.05;;;0.52;;
19776;SDS011;10047;42.490;26.012;2022-09-20T00:13:44;0.70;;;0.38;;
19776;SDS011;10047;42.490;26.012;2022-09-20T00:16:12;1.38;;;0.30;;
19776;SDS011;10047;42.490;26.012;2022-09-20T00:18:40;0.63;;;0.30;;
19776;SDS011;10047;42.490;26.012;2022-09-20T00:21:06;0.80;;;0.40;;
19776;SDS011;10047;42.490;26.012;2022-09-20T00:23:31;0.43;;;0.40;;
19776;SDS011;10047;42.490;26.012;2022-09-20T00:25:59;0.80;;;0.40;;
19776;SDS011;10047;42.490;26.012;2022-09-20T00:28:26;1.00;;;0.30;;
19776;SDS011;10047;42.490;26.012;2022-09-20T00:30:52;0.45;;;0.30;;
19776;SDS011;10047;42.490;26.012;2022-09-20T00:33:19;0.40;;;0.30;;
19776;SDS011;10047;42.490;26.012;2022-09-20T00:35:45;0.82;;;0.40;;
19776;SDS011;10047;42.490;26.012;2022-09-20T00:38:11;1.02;;;0.52;;
19776;SDS011;10047;42.490;26.012;2022-09-20T00:40:38;1.55;;;0.38;;
19776;SDS011;10047;42.490;26.012;2022-09-20T00:43:04;0.82;;;0.30;;
19776;SDS011;10047;42.490;26.012;2022-09-20T00:45:30;0.45;;;0.30;;
19776;SDS011;10047;42.490;26.012;2022-09-20T00:50:40;0.30;;;0.30;;
19776;SDS011;10047;42.490;26.012;2022-09-20T00:55:40;1.42;;;0.50;;
19776;SDS011;10047;42.490;26.012;2022-09-20T00:58:10;0.75;;;0.50;;
19776;SDS011;10047;42.490;26.012;2022-09-20T01:00:37;1.95;;;0.50;;
19776;SDS011;10047;42.490;26.012;2022-09-20T01:03:04;0.75;;;0.60;;
19776;SDS011;10047;42.490;26.012;2022-09-20T01:05:33;1.05;;;0.50;;
19776;SDS011;10047;42.490;26.012;2022-09-20T01:08:00;1.98;;;0.65;;
19776;SDS011;10047;42.490;26.012;2022-09-20T01:10:26;2.10;;;0.60;;
19776;SDS011;10047;42.490;26.012;2022-09-20T01:12:52;0.68;;;0.60;;
19776;SDS011;10047;42.490;26.012;2022-09-20T01:15:19;3.13;;;0.80;;
19776;SDS011;10047;42.490;26.012;2022-09-20T01:17:47;0.90;;;0.50;;
19776;SDS011;10047;42.490;26.012;2022-09-20T01:20:26;0.80;;;0.50;;
19776;SDS011;10047;42.490;26.012;2022-09-20T01:28:32;1.27;;;0.88;;
19776;SDS011;10047;42.490;26.012;2022-09-20T01:31:09;2.03;;;0.90;;
19776;SDS011;10047;42.490;26.012;2022-09-20T01:36:22;1.25;;;0.77;;
19776;SDS011;10047;42.490;26.012;2022-09-20T01:42:15;1.00;;;0.63;;
19776;SDS011;10047;42.490;26.012;2022-09-20T01:47:26;2.60;;;1.10;;
19776;SDS011;10047;42.490;26.012;2022-09-20T02:10:09;1.73;;;1.13;;
19776;SDS011;10047;42.490;26.012;2022-09-20T02:13:03;1.52;;;1.00;;
19776;SDS011;10047;42.490;26.012;2022-09-20T02:21:03;3.22;;;1.20;;
19776;SDS011;10047;42.490;26.012;2022-09-20T02:32:32;1.20;;;0.80;;
19776;SDS011;10047;42.490;26.012;2022-09-20T02:35:18;0.80;;;0.45;;
19776;SDS011;10047;42.490;26.012;2022-09-20T03:06:38;1.38;;;0.70;;
19776;SDS011;10047;42.490;26.012;2022-09-20T03:34:06;2.40;;;1.40;;
19776;SDS011;10047;42.490;26.012;2022-09-20T03:42:22;3.25;;;1.55;;
19776;SDS011;10047;42.490;26.012;2022-09-20T03:45:01;3.95;;;1.70;;
19776;SDS011;10047;42.490;26.012;2022-09-20T03:58:54;4.03;;;2.17;;
19776;SDS011;10047;42.490;26.012;2022-09-20T04:07:12;2.17;;;1.98;;
19776;SDS011;10047;42.490;26.012;2022-09-20T04:19:15;2.30;;;2.10;;
19776;SDS011;10047;42.490;26.012;2022-09-20T04:25:04;2.65;;;1.80;;
19776;SDS011;10047;42.490;26.012;2022-09-20T04:30:41;3.58;;;1.92;;
19776;SDS011;10047;42.490;26.012;2022-09-20T04:33:17;3.08;;;2.20;;
19776;SDS011;10047;42.490;26.012;2022-09-20T04:38:40;2.60;;;1.83;;
19776;SDS011;10047;42.490;26.012;2022-09-20T04:52:43;1.65;;;1.38;;
19776;SDS011;10047;42.490;26.012;2022-09-20T05:00:41;1.33;;;1.23;;
19776;SDS011;10047;42.490;26.012;2022-09-20T05:19:50;0.85;;;0.80;;
19776;SDS011;10047;42.490;26.012;2022-09-20T05:30:24;0.80;;;0.70;;
19776;SDS011;10047;42.490;26.012;2022-09-20T05:41:52;1.23;;;0.90;;
19776;SDS011;10047;42.490;26.012;2022-09-20T05:50:23;2.97;;;1.10;;
19776;SDS011;10047;42.490;26.012;2022-09-20T06:01:23;1.42;;;1.00;;
19776;SDS011;10047;42.490;26.012;2022-09-20T06:12:10;2.20;;;1.10;;
19776;SDS011;10047;42.490;26.012;2022-09-20T06:23:42;2.08;;;1.38;;
19776;SDS011;10047;42.490;26.012;2022-09-20T06:26:15;2.08;;;1.50;;
19776;SDS011;10047;42.490;26.012;2022-09-20T06:28:49;1.40;;;0.90;;
19776;SDS011;10047;42.490;26.012;2022-09-20T06:31:17;2.80;;;1.20;;
19776;SDS011;10047;42.490;26.012;2022-09-20T06:33:44;1.60;;;1.00;;
19776;SDS011;10047;42.490;26.012;2022-09-20T06:36:33;4.72;;;1.35;;
19776;SDS011;10047;42.490;26.012;2022-09-20T06:42:38;2.08;;;1.30;;
19776;SDS011;10047;42.490;26.012;2022-09-20T06:45:04;4.32;;;1.42;;
19776;SDS011;10047;42.490;26.012;2022-09-20T06:47:29;2.25;;;1.27;;
19776;SDS011;10047;42.490;26.012;2022-09-20T06:49:55;1.98;;;0.90;;
19776;SDS011;10047;42.490;26.012;2022-09-20T06:52:22;1.80;;;1.10;;
19776;SDS011;10047;42.490;26.012;2022-09-20T06:54:49;2.80;;;1.15;;
19776;SDS011;10047;42.490;26.012;2022-09-20T06:57:19;1.00;;;0.80;;
19776;SDS011;10047;42.490;26.012;2022-09-20T06:59:48;1.70;;;0.80;;
19776;SDS011;10047;42.490;26.012;2022-09-20T07:02:13;3.40;;;1.00;;
19776;SDS011;10047;42.490;26.012;2022-09-20T07:04:39;2.35;;;1.00;;
19776;SDS011;10047;42.490;26.012;2022-09-20T07:07:04;2.67;;;1.13;;
19776;SDS011;10047;42.490;26.012;2022-09-20T07:09:31;1.40;;;1.00;;
19776;SDS011;10047;42.490;26.012;2022-09-20T07:11:57;1.20;;;0.90;;
19776;SDS011;10047;42.490;26.012;2022-09-20T07:14:23;1.08;;;0.90;;
19776;SDS011;10047;42.490;26.012;2022-09-20T07:16:51;2.35;;;1.38;;
19776;SDS011;10047;42.490;26.012;2022-09-20T07:19:20;0.88;;;0.70;;
19776;SDS011;10047;42.490;26.012;2022-09-20T07:21:47;1.48;;;0.98;;
19776;SDS011;10047;42.490;26.012;2022-09-20T07:24:12;1.52;;;0.82;;
19776;SDS011;10047;42.490;26.012;2022-09-20T07:26:39;2.45;;;0.65;;
19776;SDS011;10047;42.490;26.012;2022-09-20T07:29:18;0.93;;;0.82;;
19776;SDS011;10047;42.490;26.012;2022-09-20T07:31:43;1.95;;;0.98;;
19776;SDS011;10047;42.490;26.012;2022-09-20T07:34:09;1.63;;;0.80;;
19776;SDS011;10047;42.490;26.012;2022-09-20T07:36:35;2.40;;;1.10;;
19776;SDS011;10047;42.490;26.012;2022-09-20T07:39:01;2.63;;;1.10;;
19776;SDS011;10047;42.490;26.012;2022-09-20T07:41:26;1.05;;;0.70;;
19776;SDS011;10047;42.490;26.012;2022-09-20T07:43:54;4.03;;;1.17;;
19776;SDS011;10047;42.490;26.012;2022-09-20T07:46:43;3.97;;;0.90;;
19776;SDS011;10047;42.490;26.012;2022-09-20T07:49:10;0.93;;;0.52;;
19776;SDS011;10047;42.490;26.012;2022-09-20T07:51:35;1.15;;;0.68;;
19776;SDS011;10047;42.490;26.012;2022-09-20T07:54:00;1.23;;;0.70;;
19776;SDS011;10047;42.490;26.012;2022-09-20T07:56:26;1.92;;;0.80;;
19776;SDS011;10047;42.490;26.012;2022-09-20T07:58:51;3.00;;;0.68;;
19776;SDS011;10047;42.490;26.012;2022-09-20T08:01:17;1.52;;;0.90;;
19776;SDS011;10047;42.490;26.012;2022-09-20T08:03:44;1.02;;;0.90;;
19776;SDS011;10047;42.490;26.012;2022-09-20T08:06:10;2.03;;;0.50;;
19776;SDS011;10047;42.490;26.012;2022-09-20T08:08:39;1.80;;;0.52;;
19776;SDS011;10047;42.490;26.012;2022-09-20T08:11:09;2.55;;;0.70;;
19776;SDS011;10047;42.490;26.012;2022-09-20T08:13:49;1.27;;;0.70;;
19776;SDS011;10047;42.490;26.012;2022-09-20T08:16:17;0.65;;;0.50;;
19776;SDS011;10047;42.490;26.012;2022-09-20T08:18:44;0.90;;;0.65;;
19776;SDS011;10047;42.490;26.012;2022-09-20T08:21:11;0.90;;;0.60;;
19776;SDS011;10047;42.490;26.012;2022-09-20T08:23:37;1.95;;;0.60;;
19776;SDS011;10047;42.490;26.012;2022-09-20T08:26:05;1.10;;;0.57;;
19776;SDS011;10047;42.490;26.012;2022-09-20T08:28:32;1.23;;;0.50;;
19776;SDS011;10047;42.490;26.012;2022-09-20T08:31:04;2.00;;;0.40;;
19776;SDS011;10047;42.490;26.012;2022-09-20T08:33:31;3.05;;;0.50;;
19776;SDS011;10047;42.490;26.012;2022-09-20T08:35:56;1.85;;;1.00;;
19776;SDS011;10047;42.490;26.012;2022-09-20T08:38:23;1.52;;;0.60;;
19776;SDS011;10047;42.490;26.012;2022-09-20T08:41:10;1.83;;;0.70;;
19776;SDS011;10047;42.490;26.012;2022-09-20T08:43:42;0.82;;;0.60;;
19776;SDS011;10047;42.490;26.012;2022-09-20T08:46:14;1.55;;;0.60;;
19776;SDS011;10047;42.490;26.012;2022-09-20T08:48:43;0.75;;;0.52;;
19776;SDS011;10047;42.490;26.012;2022-09-20T08:51:11;1.95;;;1.10;;
19776;SDS011;10047;42.490;26.012;2022-09-20T08:53:51;3.20;;;0.55;;
19776;SDS011;10047;42.490;26.012;2022-09-20T08:56:18;0.85;;;0.40;;
19776;SDS011;10047;42.490;26.012;2022-09-20T08:58:45;0.50;;;0.40;;
19776;SDS011;10047;42.490;26.012;2022-09-20T09:01:21;2.53;;;0.55;;
19776;SDS011;10047;42.490;26.012;2022-09-20T09:03:52;1.30;;;0.40;;
19776;SDS011;10047;42.490;26.012;2022-09-20T09:06:26;0.55;;;0.40;;
19776;SDS011;10047;42.490;26.012;2022-09-20T09:08:51;0.60;;;0.40;;
19776;SDS011;10047;42.490;26.012;2022-09-20T09:11:20;0.90;;;0.60;;
19776;SDS011;10047;42.490;26.012;2022-09-20T09:16:54;0.70;;;0.52;;
19776;SDS011;10047;42.490;26.012;2022-09-20T09:22:00;1.02;;;0.40;;
19776;SDS011;10047;42.490;26.012;2022-09-20T09:24:27;0.87;;;0.50;;
19776;SDS011;10047;42.490;26.012;2022-09-20T09:27:05;0.95;;;0.40;;
19776;SDS011;10047;42.490;26.012;2022-09-20T09:29:31;1.52;;;0.43;;
19776;SDS011;10047;42.490;26.012;2022-09-20T09:31:57;0.50;;;0.30;;
19776;SDS011;10047;42.490;26.012;2022-09-20T09:34:43;0.73;;;0.40;;
19776;SDS011;10047;42.490;26.012;2022-09-20T09:37:19;2.55;;;0.40;;
19776;SDS011;10047;42.490;26.012;2022-09-20T09:42:54;1.75;;;0.50;;
19776;SDS011;10047;42.490;26.012;2022-09-20T09:47:55;2.15;;;0.47;;
19776;SDS011;10047;42.490;26.012;2022-09-20T09:50:24;1.00;;;0.43;;
19776;SDS011;10047;42.490;26.012;2022-09-20T09:52:59;1.83;;;0.40;;
19776;SDS011;10047;42.490;26.012;2022-09-20T09:55:29;0.45;;;0.30;;
19776;SDS011;10047;42.490;26.012;2022-09-20T10:00:46;0.70;;;0.40;;
19776;SDS011;10047;42.490;26.012;2022-09-20T10:08:46;1.40;;;0.30;;
19776;SDS011;10047;42.490;26.012;2022-09-20T10:25:24;0.40;;;0.30;;
19776;SDS011;10047;42.490;26.012;2022-09-20T10:39:32;0.60;;;0.30;;
19776;SDS011;10047;42.490;26.012;2022-09-20T10:52:56;1.70;;;0.23;;
19776;SDS011;10047;42.490;26.012;2022-09-20T10:55:28;0.40;;;0.40;;
19776;SDS011;10047;42.490;26.012;2022-09-20T11:08:41;1.17;;;0.30;;
19776;SDS011;10047;42.490;26.012;2022-09-20T11:11:14;0.75;;;0.20;;
19776;SDS011;10047;42.490;26.012;2022-09-20T11:13:48;2.67;;;0.50;;
19776;SDS011;10047;42.490;26.012;2022-09-20T11:27:09;0.40;;;0.40;;
19776;SDS011;10047;42.490;26.012;2022-09-20T11:32:50;0.70;;;0.30;;
19776;SDS011;10047;42.490;26.012;2022-09-20T11:37:58;0.90;;;0.30;;
19776;SDS011;10047;42.490;26.012;2022-09-20T11:40:48;1.63;;;0.30;;
19776;SDS011;10047;42.490;26.012;2022-09-20T11:43:16;0.43;;;0.30;;
19776;SDS011;10047;42.490;26.012;2022-09-20T11:45:43;1.90;;;0.30;;
19776;SDS011;10047;42.490;26.012;2022-09-20T11:48:16;1.45;;;0.20;;
19776;SDS011;10047;42.490;26.012;2022-09-20T11:58:45;1.73;;;0.45;;
19776;SDS011;10047;42.490;26.012;2022-09-20T12:01:13;0.50;;;0.20;;
19776;SDS011;10047;42.490;26.012;2022-09-20T12:03:40;1.77;;;0.32;;
19776;SDS011;10047;42.490;26.012;2022-09-20T12:11:13;1.65;;;0.25;;
19776;SDS011;10047;42.490;26.012;2022-09-20T12:13:41;0.20;;;0.20;;
19776;SDS011;10047;42.490;26.012;2022-09-20T12:16:34;1.63;;;0.30;;
19776;SDS011;10047;42.490;26.012;2022-09-20T12:24:29;2.08;;;0.20;;
19776;SDS011;10047;42.490;26.012;2022-09-20T12:29:53;1.65;;;0.20;;
19776;SDS011;10047;42.490;26.012;2022-09-20T12:32:32;0.88;;;0.25;;
19776;SDS011;10047;42.490;26.012;2022-09-20T12:34:58;1.88;;;0.30;;
19776;SDS011;10047;42.490;26.012;2022-09-20T12:37:23;1.67;;;0.30;;
19776;SDS011;10047;42.490;26.012;2022-09-20T12:39:51;0.50;;;0.20;;
19776;SDS011;10047;42.490;26.012;2022-09-20T12:42:31;0.88;;;0.38;;
19776;SDS011;10047;42.490;26.012;2022-09-20T12:45:02;0.77;;;0.40;;
19776;SDS011;10047;42.490;26.012;2022-09-20T12:47:32;3.30;;;0.28;;
19776;SDS011;10047;42.490;26.012;2022-09-20T12:50:00;0.70;;;0.20;;
19776;SDS011;10047;42.490;26.012;2022-09-20T12:52:48;1.60;;;0.50;;
19776;SDS011;10047;42.490;26.012;2022-09-20T12:57:54;2.30;;;0.35;;
19776;SDS011;10047;42.490;26.012;2022-09-20T13:03:30;1.13;;;0.30;;
19776;SDS011;10047;42.490;26.012;2022-09-20T13:11:33;2.15;;;0.40;;
19776;SDS011;10047;42.490;26.012;2022-09-20T13:16:36;0.47;;;0.30;;
19776;SDS011;10047;42.490;26.012;2022-09-20T13:24:29;0.28;;;0.20;;
19776;SDS011;10047;42.490;26.012;2022-09-20T13:27:28;0.43;;;0.30;;
19776;SDS011;10047;42.490;26.012;2022-09-20T13:30:07;0.70;;;0.30;;
19776;SDS011;10047;42.490;26.012;2022-09-20T13:32:46;0.98;;;0.30;;
19776;SDS011;10047;42.490;26.012;2022-09-20T13:40:23;0.93;;;0.20;;
19776;SDS011;10047;42.490;26.012;2022-09-20T13:42:59;0.43;;;0.20;;
19776;SDS011;10047;42.490;26.012;2022-09-20T13:45:40;0.77;;;0.40;;
19776;SDS011;10047;42.490;26.012;2022-09-20T13:48:07;1.48;;;0.20;;
19776;SDS011;10047;42.490;26.012;2022-09-20T13:50:34;0.60;;;0.40;;
19776;SDS011;10047;42.490;26.012;2022-09-20T13:53:02;0.57;;;0.20;;
19776;SDS011;10047;42.490;26.012;2022-09-20T13:55:40;3.45;;;0.57;;
19776;SDS011;10047;42.490;26.012;2022-09-20T14:00:34;4.25;;;0.40;;
19776;SDS011;10047;42.490;26.012;2022-09-20T14:03:02;3.70;;;0.63;;
19776;SDS011;10047;42.490;26.012;2022-09-20T14:05:28;1.98;;;0.70;;
19776;SDS011;10047;42.490;26.012;2022-09-20T14:07:55;2.63;;;0.77;;
19776;SDS011;10047;42.490;26.012;2022-09-20T14:10:34;1.77;;;0.50;;
19776;SDS011;10047;42.490;26.012;2022-09-20T14:13:05;2.15;;;0.40;;
19776;SDS011;10047;42.490;26.012;2022-09-20T14:15:35;0.75;;;0.30;;
19776;SDS011;10047;42.490;26.012;2022-09-20T14:18:03;2.92;;;0.65;;
19776;SDS011;10047;42.490;26.012;2022-09-20T14:20:31;1.38;;;0.50;;
19776;SDS011;10047;42.490;26.012;2022-09-20T14:22:58;2.58;;;0.30;;
19776;SDS011;10047;42.490;26.012;2022-09-20T14:25:25;2.35;;;0.55;;
19776;SDS011;10047;42.490;26.012;2022-09-20T14:30:49;5.90;;;0.50;;
19776;SDS011;10047;42.490;26.012;2022-09-20T14:33:17;4.00;;;0.55;;
19776;SDS011;10047;42.490;26.012;2022-09-20T14:35:48;2.15;;;0.50;;
19776;SDS011;10047;42.490;26.012;2022-09-20T14:38:15;2.10;;;0.60;;
19776;SDS011;10047;42.490;26.012;2022-09-20T14:40:51;1.65;;;0.20;;
19776;SDS011;10047;42.490;26.012;2022-09-20T14:43:25;0.55;;;0.30;;
19776;SDS011;10047;42.490;26.012;2022-09-20T14:45:55;2.08;;;0.40;;
19776;SDS011;10047;42.490;26.012;2022-09-20T14:53:43;0.63;;;0.20;;
19776;SDS011;10047;42.490;26.012;2022-09-20T14:56:10;0.20;;;0.20;;
19776;SDS011;10047;42.490;26.012;2022-09-20T15:01:29;1.50;;;0.20;;
19776;SDS011;10047;42.490;26.012;2022-09-20T15:03:55;2.05;;;0.40;;
19776;SDS011;10047;42.490;26.012;2022-09-20T15:06:22;0.30;;;0.20;;
19776;SDS011;10047;42.490;26.012;2022-09-20T15:08:48;1.45;;;0.40;;
19776;SDS011;10047;42.490;26.012;2022-09-20T15:11:15;1.80;;;0.40;;
19776;SDS011;10047;42.490;26.012;2022-09-20T15:13:41;1.17;;;0.30;;
19776;SDS011;10047;42.490;26.012;2022-09-20T15:16:07;0.75;;;0.35;;
19776;SDS011;10047;42.490;26.012;2022-09-20T15:18:35;2.20;;;0.50;;
19776;SDS011;10047;42.490;26.012;2022-09-20T15:21:04;2.50;;;0.80;;
19776;SDS011;10047;42.490;26.012;2022-09-20T15:23:30;2.13;;;1.20;;
19776;SDS011;10047;42.490;26.012;2022-09-20T15:25:56;4.07;;;1.33;;
19776;SDS011;10047;42.490;26.012;2022-09-20T15:28:22;2.65;;;0.90;;
19776;SDS011;10047;42.490;26.012;2022-09-20T15:30:48;4.28;;;0.70;;
19776;SDS011;10047;42.490;26.012;2022-09-20T15:33:15;4.13;;;0.60;;
19776;SDS011;10047;42.490;26.012;2022-09-20T15:35:42;0.70;;;0.30;;
19776;SDS011;10047;42.490;26.012;2022-09-20T15:38:09;2.25;;;0.40;;
19776;SDS011;10047;42.490;26.012;2022-09-20T15:40:42;1.30;;;0.20;;
19776;SDS011;10047;42.490;26.012;2022-09-20T15:43:11;1.58;;;0.30;;
19776;SDS011;10047;42.490;26.012;2022-09-20T15:45:47;1.05;;;0.30;;
19776;SDS011;10047;42.490;26.012;2022-09-20T15:48:15;0.40;;;0.30;;
19776;SDS011;10047;42.490;26.012;2022-09-20T15:53:34;1.05;;;0.30;;
19776;SDS011;10047;42.490;26.012;2022-09-20T15:58:42;0.98;;;0.30;;
19776;SDS011;10047;42.490;26.012;2022-09-20T16:01:09;2.45;;;0.40;;
19776;SDS011;10047;42.490;26.012;2022-09-20T16:03:35;2.70;;;0.40;;
19776;SDS011;10047;42.490;26.012;2022-09-20T16:06:01;2.13;;;0.45;;
19776;SDS011;10047;42.490;26.012;2022-09-20T16:08:36;0.63;;;0.30;;
19776;SDS011;10047;42.490;26.012;2022-09-20T16:11:03;1.23;;;0.35;;
19776;SDS011;10047;42.490;26.012;2022-09-20T16:13:29;4.30;;;0.40;;
19776;SDS011;10047;42.490;26.012;2022-09-20T16:15:59;1.13;;;0.40;;
19776;SDS011;10047;42.490;26.012;2022-09-20T16:18:26;1.27;;;0.55;;
19776;SDS011;10047;42.490;26.012;2022-09-20T16:21:11;1.10;;;0.45;;
19776;SDS011;10047;42.490;26.012;2022-09-20T16:23:38;0.63;;;0.40;;
19776;SDS011;10047;42.490;26.012;2022-09-20T16:26:05;0.85;;;0.30;;
19776;SDS011;10047;42.490;26.012;2022-09-20T16:28:33;2.15;;;0.52;;
19776;SDS011;10047;42.490;26.012;2022-09-20T16:31:00;1.48;;;0.50;;
19776;SDS011;10047;42.490;26.012;2022-09-20T16:33:25;1.90;;;0.60;;
19776;SDS011;10047;42.490;26.012;2022-09-20T16:35:51;1.83;;;0.40;;
19776;SDS011;10047;42.490;26.012;2022-09-20T16:38:17;3.63;;;0.50;;
19776;SDS011;10047;42.490;26.012;2022-09-20T16:40:42;1.30;;;1.00;;
19776;SDS011;10047;42.490;26.012;2022-09-20T16:43:11;1.85;;;1.42;;
19776;SDS011;10047;42.490;26.012;2022-09-20T16:45:42;2.25;;;1.33;;
19776;SDS011;10047;42.490;26.012;2022-09-20T16:48:14;2.66;;;1.54;;
19776;SDS011;10047;42.490;26.012;2022-09-20T16:50:39;1.60;;;0.98;;
19776;SDS011;10047;42.490;26.012;2022-09-20T16:53:05;2.38;;;1.48;;
19776;SDS011;10047;42.490;26.012;2022-09-20T16:55:31;3.15;;;1.00;;
19776;SDS011;10047;42.490;26.012;2022-09-20T16:57:57;1.25;;;0.80;;
19776;SDS011;10047;42.490;26.012;2022-09-20T17:00:23;1.52;;;0.80;;
19776;SDS011;10047;42.490;26.012;2022-09-20T17:02:49;3.13;;;0.75;;
19776;SDS011;10047;42.490;26.012;2022-09-20T17:05:14;0.88;;;0.60;;
19776;SDS011;10047;42.490;26.012;2022-09-20T17:07:40;1.08;;;0.60;;
19776;SDS011;10047;42.490;26.012;2022-09-20T17:10:08;3.50;;;0.65;;
19776;SDS011;10047;42.490;26.012;2022-09-20T17:12:34;4.15;;;0.80;;
19776;SDS011;10047;42.490;26.012;2022-09-20T17:15:06;1.10;;;0.82;;
19776;SDS011;10047;42.490;26.012;2022-09-20T17:17:32;2.50;;;0.95;;
19776;SDS011;10047;42.490;26.012;2022-09-20T17:19:58;3.67;;;0.95;;
19776;SDS011;10047;42.490;26.012;2022-09-20T17:22:27;4.15;;;0.90;;
19776;SDS011;10047;42.490;26.012;2022-09-20T17:24:53;1.85;;;0.80;;
19776;SDS011;10047;42.490;26.012;2022-09-20T17:27:18;0.90;;;0.50;;
19776;SDS011;10047;42.490;26.012;2022-09-20T17:29:44;1.35;;;0.60;;
19776;SDS011;10047;42.490;26.012;2022-09-20T17:32:09;1.50;;;0.63;;
19776;SDS011;10047;42.490;26.012;2022-09-20T17:34:34;2.17;;;0.50;;
19776;SDS011;10047;42.490;26.012;2022-09-20T17:37:00;0.93;;;0.73;;
19776;SDS011;10047;42.490;26.012;2022-09-20T17:39:27;0.82;;;0.40;;
19776;SDS011;10047;42.490;26.012;2022-09-20T17:41:52;1.63;;;0.50;;
19776;SDS011;10047;42.490;26.012;2022-09-20T17:44:18;3.15;;;0.50;;
19776;SDS011;10047;42.490;26.012;2022-09-20T17:46:44;2.45;;;0.38;;
19776;SDS011;10047;42.490;26.012;2022-09-20T17:49:16;1.10;;;0.47;;
19776;SDS011;10047;42.490;26.012;2022-09-20T17:54:15;0.60;;;0.50;;
19776;SDS011;10047;42.490;26.012;2022-09-20T17:56:48;0.80;;;0.60;;
19776;SDS011;10047;42.490;26.012;2022-09-20T18:02:03;0.77;;;0.50;;
19776;SDS011;10047;42.490;26.012;2022-09-20T18:04:28;2.33;;;0.40;;
19776;SDS011;10047;42.490;26.012;2022-09-20T18:06:54;3.50;;;0.80;;
19776;SDS011;10047;42.490;26.012;2022-09-20T18:09:20;1.02;;;0.60;;
19776;SDS011;10047;42.490;26.012;2022-09-20T18:11:50;1.02;;;0.70;;
19776;SDS011;10047;42.490;26.012;2022-09-20T18:14:18;1.40;;;0.80;;
19776;SDS011;10047;42.490;26.012;2022-09-20T18:16:55;1.83;;;0.90;;
19776;SDS011;10047;42.490;26.012;2022-09-20T18:19:24;1.38;;;0.80;;
19776;SDS011;10047;42.490;26.012;2022-09-20T18:24:21;3.28;;;1.08;;
19776;SDS011;10047;42.490;26.012;2022-09-20T18:26:47;2.10;;;0.90;;
19776;SDS011;10047;42.490;26.012;2022-09-20T18:29:13;1.75;;;0.90;;
19776;SDS011;10047;42.490;26.012;2022-09-20T18:34:09;3.60;;;0.80;;
19776;SDS011;10047;42.490;26.012;2022-09-20T18:36:42;1.25;;;0.70;;
19776;SDS011;10047;42.490;26.012;2022-09-20T18:39:10;1.52;;;0.60;;
19776;SDS011;10047;42.490;26.012;2022-09-20T18:41:37;1.83;;;0.70;;
19776;SDS011;10047;42.490;26.012;2022-09-20T18:44:04;1.77;;;0.95;;
19776;SDS011;10047;42.490;26.012;2022-09-20T18:46:31;0.50;;;0.50;;
19776;SDS011;10047;42.490;26.012;2022-09-20T18:49:03;1.98;;;0.73;;
19776;SDS011;10047;42.490;26.012;2022-09-20T18:51:30;2.00;;;0.60;;
19776;SDS011;10047;42.490;26.012;2022-09-20T18:53:56;0.90;;;0.60;;
19776;SDS011;10047;42.490;26.012;2022-09-20T18:56:24;0.70;;;0.60;;
19776;SDS011;10047;42.490;26.012;2022-09-20T18:58:54;3.33;;;0.73;;
19776;SDS011;10047;42.490;26.012;2022-09-20T19:01:33;5.05;;;0.80;;
19776;SDS011;10047;42.490;26.012;2022-09-20T19:17:58;2.03;;;1.13;;
19776;SDS011;10047;42.490;26.012;2022-09-20T19:20:47;5.05;;;1.88;;
19776;SDS011;10047;42.490;26.012;2022-09-20T19:26:26;1.88;;;0.77;;
19776;SDS011;10047;42.490;26.012;2022-09-20T19:28:54;2.00;;;0.90;;
19776;SDS011;10047;42.490;26.012;2022-09-20T19:31:31;2.85;;;1.00;;
19776;SDS011;10047;42.490;26.012;2022-09-20T19:33:58;2.50;;;1.00;;
19776;SDS011;10047;42.490;26.012;2022-09-20T19:36:37;1.63;;;1.10;;
19776;SDS011;10047;42.490;26.012;2022-09-20T19:39:14;4.32;;;1.40;;
19776;SDS011;10047;42.490;26.012;2022-09-20T19:52:14;2.40;;;0.50;;
19776;SDS011;10047;42.490;26.012;2022-09-20T19:54:39;1.65;;;0.68;;
19776;SDS011;10047;42.490;26.012;2022-09-20T19:57:16;1.70;;;0.50;;
19776;SDS011;10047;42.490;26.012;2022-09-20T19:59:44;2.13;;;0.70;;
19776;SDS011;10047;42.490;26.012;2022-09-20T20:02:10;1.10;;;0.60;;
19776;SDS011;10047;42.490;26.012;2022-09-20T20:04:36;0.95;;;0.70;;
19776;SDS011;10047;42.490;26.012;2022-09-20T20:15:13;1.52;;;0.88;;
19776;SDS011;10047;42.490;26.012;2022-09-20T20:18:03;2.15;;;0.70;;
19776;SDS011;10047;42.490;26.012;2022-09-20T20:20:49;2.63;;;0.70;;
19776;SDS011;10047;42.490;26.012;2022-09-20T20:28:28;2.85;;;0.60;;
19776;SDS011;10047;42.490;26.012;2022-09-20T20:30:54;1.25;;;0.70;;
19776;SDS011;10047;42.490;26.012;2022-09-20T20:33:22;1.52;;;0.60;;
19776;SDS011;10047;42.490;26.012;2022-09-20T20:35:51;1.50;;;0.70;;
19776;SDS011;10047;42.490;26.012;2022-09-20T20:43:29;0.90;;;0.60;;
19776;SDS011;10047;42.490;26.012;2022-09-20T20:45:55;0.73;;;0.50;;
19776;SDS011;10047;42.490;26.012;2022-09-20T20:48:20;1.38;;;0.50;;
19776;SDS011;10047;42.490;26.012;2022-09-20T20:50:47;1.13;;;0.60;;
19776;SDS011;10047;42.490;26.012;2022-09-20T20:53:12;0.77;;;0.60;;
19776;SDS011;10047;42.490;26.012;2022-09-20T20:55:38;1.20;;;0.60;;
19776;SDS011;10047;42.490;26.012;2022-09-20T20:58:05;0.70;;;0.65;;
19776;SDS011;10047;42.490;26.012;2022-09-20T21:00:32;2.75;;;0.68;;
19776;SDS011;10047;42.490;26.012;2022-09-20T21:02:58;1.35;;;0.80;;
19776;SDS011;10047;42.490;26.012;2022-09-20T21:05:28;1.40;;;0.70;;
19776;SDS011;10047;42.490;26.012;2022-09-20T21:07:53;1.90;;;0.70;;
19776;SDS011;10047;42.490;26.012;2022-09-20T21:10:20;1.38;;;0.52;;
19776;SDS011;10047;42.490;26.012;2022-09-20T21:12:49;1.02;;;0.77;;
19776;SDS011;10047;42.490;26.012;2022-09-20T21:15:17;1.50;;;0.60;;
19776;SDS011;10047;42.490;26.012;2022-09-20T21:17:48;1.20;;;0.60;;
19776;SDS011;10047;42.490;26.012;2022-09-20T21:25:20;2.95;;;0.70;;
19776;SDS011;10047;42.490;26.012;2022-09-20T21:27:45;1.17;;;0.70;;
19776;SDS011;10047;42.490;26.012;2022-09-20T21:30:10;0.68;;;0.63;;
19776;SDS011;10047;42.490;26.012;2022-09-20T21:32:36;0.70;;;0.60;;
19776;SDS011;10047;42.490;26.012;2022-09-20T21:35:02;0.77;;;0.63;;
19776;SDS011;10047;42.490;26.012;2022-09-20T21:37:27;1.20;;;0.70;;
19776;SDS011;10047;42.490;26.012;2022-09-20T21:39:53;1.50;;;0.60;;
19776;SDS011;10047;42.490;26.012;2022-09-20T21:42:18;0.85;;;0.60;;
19776;SDS011;10047;42.490;26.012;2022-09-20T21:44:44;1.20;;;0.70;;
19776;SDS011;10047;42.490;26.012;2022-09-20T21:47:09;0.93;;;0.70;;
19776;SDS011;10047;42.490;26.012;2022-09-20T21:49:34;1.13;;;0.60;;
19776;SDS011;10047;42.490;26.012;2022-09-20T21:52:00;0.80;;;0.60;;
19776;SDS011;10047;42.490;26.012;2022-09-20T21:54:25;2.00;;;0.70;;
19776;SDS011;10047;42.490;26.012;2022-09-20T21:56:52;1.27;;;0.60;;
19776;SDS011;10047;42.490;26.012;2022-09-20T21:59:19;0.90;;;0.50;;
19776;SDS011;10047;42.490;26.012;2022-09-20T22:01:46;0.77;;;0.55;;
19776;SDS011;10047;42.490;26.012;2022-09-20T22:04:11;2.38;;;0.77;;
19776;SDS011;10047;42.490;26.012;2022-09-20T22:06:43;1.27;;;0.80;;
19776;SDS011;10047;42.490;26.012;2022-09-20T22:09:10;1.20;;;0.77;;
19776;SDS011;10047;42.490;26.012;2022-09-20T22:11:38;1.80;;;0.70;;